メインページ
METAR-TAF:

METAR-TAF

空港 :

キング・ハーリド国際空港

リヤド, サウジアラビア

緯度: 24-56N, 経度: 046-43E, 海抜: 614m

現時点の気象観測

当レポートは1時間0分前の09:00(UTC)に作成
北東の風 4kt
気温 14°C
湿度 82%
気圧 1025 hPa
視程: 1500m
高度2500ftの雲は散在している
高度3000ftの千切れ雲あり

METAR: OERK 190900Z 05004KT 1500 BR SCT025 BKN030 14/11 Q1025 NOSIG

時間: 13:00 (10:00 UTC)

予報

当レポートは4時間45分前の05:15(UTC)に作成
予報は19日の 06時(UTC)から 20日の 12時(UTC)まで有効
南東の風 12kt
視程: 7000m
高度4000ftの雲はほとんどない
19日の 06時(UTC)から 19日の 10時(UTC)まで一時的に
視程: 3000m
高度2000ftの雲は散在している
19日の 16時(UTC)から 19日の 18時(UTC)まで徐々に
南/南東の風 6kt

TAF: OERK 190515Z 1906/2012 14012KT 7000 FEW040 TEMPO 1906/1910 3000 BR SCT020 BECMG 1916/1918 16006KT

4,000以上の空港の気象観測と天気予報(METAR報とTAF報)

利用可能な観測所は地図上に黄色い丸と赤い丸で示す。

丸の上にカーソルを重ねると観測所名を参照できる。

次にクリックすると気象観測と天気予報を参照できる。

マップの切り替え:黒色「×」印の緑ボタンをクリックして拡大、「-」印の緑ボタンをクリックして縮小、緑色の三角印をクリックして隣りの地図に切り替え


METAR-TAF: